Terminal Aerodrome Forecast
Issued by NWS

Home | Current Version | Previous Version | Text Only | Print | Product List | Glossary Off
Versions: 1 2 3 4 5 6 7 8 9 10 11 12 13 14 15 16 17 18

344
FTUS43 KTOP 261131
TAFMHK
TAF
KMHK 261131Z 2612/2712 22006KT P6SM BKN150
     FM261900 28005KT P6SM VCTS SCT070CB BKN090
     FM262300 04006KT P6SM BKN110=

USA.gov is the U.S. government's official web portal to all federal, state and local government web resources and services.